Terminal Aerodrome Forecast
Issued by NWS

Home | Current Version | Previous Version | Graphics & Text | Print | Product List | Glossary On
Versions: 1 2 3 4 5 6 7 8 9 10 11 12 13 14 15 16
000
FTUS43 KICT 021729
TAFRSL
TAF
KRSL 021729Z 0218/0318 VRB03KT P6SM BKN200
     FM030500 06004KT P6SM OVC080
     FM031100 06005KT P6SM OVC035
     FM031500 09006KT 6SM -RASN OVC020=

USA.gov is the U.S. government's official web portal to all federal, state and local government web resources and services.